createdAt,value
2018-06-28T00:00:30.359Z,2.72
2018-06-28T00:04:31.078Z,2.15
2018-06-28T00:10:31.932Z,2.52
2018-06-28T00:14:32.667Z,2.42
2018-06-28T00:20:33.376Z,2.54
2018-06-28T00:24:34.069Z,2.27
2018-06-28T00:26:34.813Z,2.31
2018-06-28T00:30:35.596Z,2.32
2018-06-28T00:36:36.374Z,3.05
2018-06-28T00:40:37.130Z,2.87
2018-06-28T00:46:37.906Z,2.99
2018-06-28T00:50:38.839Z,2.97
2018-06-28T00:52:39.543Z,3.03
2018-06-28T00:56:40.213Z,2.72
2018-06-28T01:02:41.146Z,3.6
2018-06-28T01:06:41.930Z,3.57
2018-06-28T01:12:42.661Z,3.45
2018-06-28T01:16:43.307Z,3.04
2018-06-28T01:18:44.352Z,3.29
2018-06-28T01:22:48.151Z,2.75
2018-06-28T01:28:49.055Z,3.29
2018-06-28T01:32:49.912Z,2.97
2018-06-28T01:38:50.557Z,3.99
2018-06-28T01:42:51.391Z,3.66
2018-06-28T01:44:52.164Z,4.06
2018-06-28T01:48:52.879Z,3.91
2018-06-28T01:54:53.623Z,3.98
2018-06-28T01:58:54.346Z,3.58
2018-06-28T02:04:55.074Z,3.49
2018-06-28T02:08:55.776Z,3.2
2018-06-28T02:10:56.441Z,3.72
2018-06-28T02:14:57.414Z,3.2
2018-06-28T02:20:58.137Z,3.63
2018-06-28T02:24:58.802Z,3.45
2018-06-28T02:30:59.516Z,3.93
2018-06-28T02:35:00.152Z,3.83
2018-06-28T02:37:00.770Z,4.18
2018-06-28T02:41:01.537Z,3.53
2018-06-28T02:47:02.365Z,3.81
2018-06-28T02:51:02.991Z,3.83
2018-06-28T02:57:03.751Z,3.9
2018-06-28T03:01:04.521Z,3.61
2018-06-28T03:03:05.278Z,3.24
2018-06-28T03:07:06.112Z,3.36
2018-06-28T03:13:07.525Z,3.66
2018-06-28T03:17:08.357Z,3.47
2018-06-28T03:23:09.125Z,4.65
2018-06-28T03:27:09.804Z,4.5
2018-06-28T03:29:10.434Z,4.72
2018-06-28T03:33:11.153Z,4.65
2018-06-28T03:39:11.899Z,3.34
2018-06-28T03:43:12.673Z,2.94
2018-06-28T03:49:13.531Z,2.27
2018-06-28T03:53:14.251Z,1.97
2018-06-28T03:55:15.044Z,2.04
2018-06-28T03:59:15.815Z,2
2018-06-28T04:05:16.564Z,2.77
2018-06-28T04:09:17.313Z,2.43
2018-06-28T04:15:18.453Z,3.3
2018-06-28T04:19:19.413Z,3.26
2018-06-28T04:21:20.294Z,3.96
2018-06-28T04:25:20.901Z,3.33
2018-06-28T04:31:21.653Z,3.16
2018-06-28T04:35:22.304Z,2.83
2018-06-28T04:41:22.977Z,4.04
2018-06-28T04:45:24.145Z,4.32
2018-06-28T04:47:24.850Z,5.24
2018-06-28T04:51:25.489Z,4.79
2018-06-28T04:57:26.542Z,5.12
2018-06-28T05:01:27.353Z,4.28
2018-06-28T05:07:28.059Z,4.93
2018-06-28T05:11:28.924Z,4.84
2018-06-28T05:13:29.637Z,5.28
2018-06-28T05:17:30.457Z,4.82
2018-06-28T05:23:31.295Z,10.5
2018-06-28T05:27:32.118Z,10.56
2018-06-28T05:33:32.895Z,9.19
2018-06-28T05:39:33.626Z,10.24
2018-06-28T05:43:34.351Z,9.33
2018-06-28T05:49:35.144Z,8.48
2018-06-28T05:53:35.833Z,7.9
2018-06-28T05:59:36.556Z,10.11
2018-06-28T06:05:37.359Z,10.1
2018-06-28T06:09:38.115Z,14.36
2018-06-28T06:15:39.375Z,7.62
2018-06-28T06:19:40.053Z,6.75
2018-06-28T06:25:40.807Z,6.72
2018-06-28T06:31:41.579Z,6.46
2018-06-28T06:35:42.429Z,6.4
2018-06-28T06:41:43.095Z,6.11
2018-06-28T06:45:43.825Z,6.1
2018-06-28T06:51:44.746Z,6.36
2018-06-28T06:57:45.521Z,5.2
2018-06-28T07:01:46.692Z,5.31
2018-06-28T07:07:47.472Z,5.05
2018-06-28T07:11:48.346Z,4.64
2018-06-28T07:17:49.190Z,4.79
2018-06-28T07:23:50.114Z,4.68
2018-06-28T07:27:50.842Z,4.3
2018-06-28T07:33:51.641Z,4.16
2018-06-28T07:37:52.453Z,4.02
2018-06-28T07:43:53.199Z,3.26
2018-06-28T07:49:53.983Z,3.94
2018-06-28T07:53:54.745Z,3.91
2018-06-28T07:59:55.494Z,3.75
2018-06-28T08:03:56.192Z,3.36
2018-06-28T08:09:57.096Z,3.78
2018-06-28T08:15:57.786Z,2.76
2018-06-28T08:19:58.924Z,2.64
2018-06-28T08:25:59.779Z,2.67
2018-06-28T08:30:00.626Z,2.66
2018-06-28T08:32:01.346Z,2.78
2018-06-28T08:36:02.073Z,2.65
2018-06-28T08:42:02.866Z,2.2
2018-06-28T08:46:03.637Z,1.82
2018-06-28T08:52:04.379Z,2.15
2018-06-28T08:56:05.124Z,1.92
2018-06-28T08:58:06.007Z,1.99
2018-06-28T09:02:06.597Z,1.89
2018-06-28T09:08:07.366Z,2.57
2018-06-28T09:12:08.200Z,2.14
2018-06-28T09:18:08.923Z,1.87
2018-06-28T09:22:09.586Z,1.69
2018-06-28T09:24:10.307Z,1.69
2018-06-28T09:28:11.014Z,2.05
2018-06-28T09:34:11.830Z,1.87
2018-06-28T09:38:12.677Z,1.72
2018-06-28T09:44:14.534Z,1.66
2018-06-28T09:48:14.202Z,1.7
2018-06-28T09:50:15.133Z,2.25
2018-06-28T09:54:15.877Z,1.95
2018-06-28T10:00:18.140Z,1.91
2018-06-28T10:04:17.966Z,1.36
2018-06-28T10:10:18.671Z,2.06
2018-06-28T10:14:19.529Z,1.69
2018-06-28T10:16:20.107Z,1.9
2018-06-28T10:20:20.891Z,1.52
2018-06-28T10:26:21.669Z,1.72
2018-06-28T10:30:22.545Z,1.48
2018-06-28T10:36:23.353Z,1.58
2018-06-28T10:40:24.056Z,1.31
2018-06-28T10:42:25.071Z,1.47
2018-06-28T10:46:25.850Z,1.67
2018-06-28T10:52:26.848Z,1.86
2018-06-28T10:56:27.713Z,1.8
2018-06-28T11:02:28.298Z,1.81
2018-06-28T11:06:29.740Z,1.47
2018-06-28T11:08:30.556Z,1.34
2018-06-28T11:12:31.370Z,1.43
2018-06-28T11:18:32.330Z,1.68
2018-06-28T11:22:33.115Z,2.15
2018-06-28T11:28:33.982Z,2.45
2018-06-28T11:32:34.627Z,1.92
2018-06-28T11:34:35.491Z,1.67
2018-06-28T11:38:36.205Z,1.4
2018-06-28T11:44:36.987Z,1.54
2018-06-28T11:48:37.716Z,1.47
2018-06-28T11:54:38.535Z,1.72
2018-06-28T12:00:39.359Z,1.69
2018-06-28T12:04:40.116Z,1.8
2018-06-28T12:10:40.801Z,1.93
2018-06-28T12:14:41.658Z,1.86
2018-06-28T12:20:42.438Z,2.57
2018-06-28T12:26:43.185Z,2.25
2018-06-28T12:30:43.866Z,2.12
2018-06-28T12:36:44.592Z,2.09
2018-06-28T12:40:45.361Z,1.97
2018-06-28T12:46:46.150Z,1.66
2018-06-28T12:52:46.890Z,1.73
2018-06-28T12:56:47.643Z,1.58
2018-06-28T13:02:48.466Z,1.51
2018-06-28T13:06:49.214Z,1.58
2018-06-28T13:12:49.971Z,1.83
2018-06-28T13:18:50.927Z,1.86
2018-06-28T13:22:51.521Z,1.74
2018-06-28T13:28:52.260Z,1.82
2018-06-28T13:32:53.119Z,1.84
2018-06-28T13:38:53.898Z,1.78
2018-06-28T13:44:54.580Z,1.82
2018-06-28T13:48:55.332Z,1.95
2018-06-28T13:54:55.990Z,1.81
2018-06-28T13:58:56.818Z,2.22
2018-06-28T14:00:57.447Z,1.82
2018-06-28T14:04:58.128Z,1.84
2018-06-28T14:10:58.862Z,2.9
2018-06-28T14:14:59.641Z,2.46
2018-06-28T14:21:00.323Z,1.72
2018-06-28T14:25:01.122Z,1.88
2018-06-28T14:27:01.850Z,2.3
2018-06-28T14:31:02.533Z,1.95
2018-06-28T14:37:03.245Z,2.08
2018-06-28T14:41:04.001Z,1.87
2018-06-28T14:47:04.904Z,3.61
2018-06-28T14:51:08.392Z,3.14
2018-06-28T14:53:09.134Z,3.6
2018-06-28T14:57:09.880Z,2.81
2018-06-28T15:03:10.680Z,3.18
2018-06-28T15:07:11.565Z,2.84
2018-06-28T15:13:12.302Z,2.97
2018-06-28T15:17:12.909Z,2.89
2018-06-28T15:19:14.946Z,3.01
2018-06-28T15:23:15.983Z,2.48
2018-06-28T15:29:16.803Z,2.25
2018-06-28T15:33:17.818Z,2.57
2018-06-28T15:39:18.446Z,3.13
2018-06-28T15:43:19.274Z,2.44
2018-06-28T15:45:20.215Z,2.72
2018-06-28T15:49:21.056Z,2.73
2018-06-28T15:55:21.729Z,2.42
2018-06-28T15:59:22.726Z,2.87
2018-06-28T16:05:23.566Z,2.32
2018-06-28T16:09:24.370Z,2.22
2018-06-28T16:11:25.129Z,2.18
2018-06-28T16:15:26.446Z,1.91
2018-06-28T16:21:27.127Z,1.94
2018-06-28T16:25:27.871Z,1.8
2018-06-28T16:31:28.671Z,2.18
2018-06-28T16:35:29.568Z,2.56
2018-06-28T16:37:30.268Z,2.15
2018-06-28T16:41:31.111Z,4.25
2018-06-28T16:47:32.212Z,2.57
2018-06-28T16:51:32.934Z,3.96
2018-06-28T16:57:33.685Z,3.83
2018-06-28T17:01:34.537Z,2.88
2018-06-28T17:03:35.177Z,2.44
2018-06-28T17:07:35.979Z,2.07
2018-06-28T17:13:36.744Z,2.05
2018-06-28T17:17:37.616Z,2.01
2018-06-28T17:23:38.244Z,2.13
2018-06-28T17:29:38.987Z,2.46
2018-06-28T17:33:39.812Z,2.29
2018-06-28T17:39:40.579Z,2.22
2018-06-28T17:43:41.339Z,2.44
2018-06-28T17:49:42.548Z,2.93
2018-06-28T17:55:43.330Z,2.99
2018-06-28T17:59:44.076Z,2.39
2018-06-28T18:05:44.791Z,2.35
2018-06-28T18:09:45.517Z,2.71
2018-06-28T18:15:46.306Z,4.21
2018-06-28T18:21:47.106Z,9.69
2018-06-28T18:25:47.947Z,9.09
2018-06-28T18:31:49.163Z,8.79
2018-06-28T18:35:49.882Z,9.95
2018-06-28T18:41:50.533Z,5.79
2018-06-28T18:47:51.241Z,3.89
2018-06-28T18:51:52.043Z,4.45
2018-06-28T18:57:52.742Z,4.12
2018-06-28T19:01:53.789Z,4.19
2018-06-28T19:07:55.469Z,4.08
2018-06-28T19:13:56.273Z,3.78
2018-06-28T19:17:57.101Z,3.74
2018-06-28T19:23:57.995Z,3.4
2018-06-28T19:27:58.745Z,3.14
2018-06-28T19:29:59.489Z,3.78
2018-06-28T19:34:00.278Z,2.91
2018-06-28T19:40:01.084Z,3.83
2018-06-28T19:44:01.850Z,3.27
2018-06-28T19:50:02.652Z,4.83
2018-06-28T19:54:03.596Z,3.14
2018-06-28T19:56:04.321Z,4.37
2018-06-28T20:00:05.173Z,4.01
2018-06-28T20:06:05.950Z,2.99
2018-06-28T20:10:06.699Z,2.27
2018-06-28T20:16:07.459Z,3.07
2018-06-28T20:20:08.328Z,2.51
2018-06-28T20:22:09.093Z,3.16
2018-06-28T20:26:09.814Z,2.79
2018-06-28T20:32:10.622Z,2.95
2018-06-28T20:36:11.454Z,2.25
2018-06-28T20:42:12.639Z,3.93
2018-06-28T20:46:13.542Z,3.83
2018-06-28T20:48:14.323Z,4.82
2018-06-28T20:52:15.162Z,4.46
2018-06-28T20:58:15.957Z,4.94
2018-06-28T21:02:16.863Z,4.56
2018-06-28T21:08:17.904Z,4.15
2018-06-28T21:12:18.960Z,3.77
2018-06-28T21:14:19.618Z,3.77
2018-06-28T21:18:20.387Z,3.73
2018-06-28T21:24:21.209Z,8.1
2018-06-28T21:28:21.951Z,7.79
2018-06-28T21:34:22.707Z,3.58
2018-06-28T21:38:23.493Z,3.57
2018-06-28T21:40:24.165Z,3.39
2018-06-28T21:44:24.774Z,4.27
2018-06-28T21:50:25.592Z,7.1
2018-06-28T21:54:26.307Z,7.05
2018-06-28T22:00:27.913Z,7.82
2018-06-28T22:04:28.559Z,8.04
2018-06-28T22:06:29.338Z,12.38
2018-06-28T22:10:30.150Z,10.86
2018-06-28T22:16:30.925Z,4.31
2018-06-28T22:20:31.745Z,4.34
2018-06-28T22:26:32.641Z,3.6
2018-06-28T22:30:33.413Z,3.41
2018-06-28T22:32:34.039Z,3.68
2018-06-28T22:36:34.900Z,3.11
2018-06-28T22:42:35.687Z,4.3
2018-06-28T22:46:36.587Z,3.35
2018-06-28T22:52:37.346Z,3.64
2018-06-28T22:56:38.049Z,3.77
2018-06-28T22:58:38.774Z,5.34
2018-06-28T23:02:39.597Z,4.75
2018-06-28T23:08:40.232Z,4.02
2018-06-28T23:12:40.983Z,3.3
2018-06-28T23:18:41.766Z,3.32
2018-06-28T23:24:42.522Z,3.17
2018-06-28T23:28:43.265Z,2.77
2018-06-28T23:34:44.098Z,3.27
2018-06-28T23:38:44.817Z,3.06
2018-06-28T23:44:45.617Z,3.16
2018-06-28T23:50:46.327Z,3.35
2018-06-28T23:54:46.950Z,3.06
